createdAt,value
2019-04-11T00:00:52.275Z,98683.25
2019-04-11T00:03:25.119Z,98683.25
2019-04-11T00:05:54.977Z,98681.16
2019-04-11T00:08:23.992Z,98677.87
2019-04-11T00:10:53.524Z,98682.69
2019-04-11T00:13:25.667Z,98678.45
2019-04-11T00:15:53.476Z,98677.59
2019-04-11T00:18:22.881Z,98686.77
2019-04-11T00:20:52.776Z,98685.14
2019-04-11T00:23:22.056Z,98690.73
2019-04-11T00:25:51.727Z,98688.29
2019-04-11T00:28:21.586Z,98689.32
2019-04-11T00:30:50.472Z,98681.95
2019-04-11T00:33:20.030Z,98687.94
2019-04-11T00:35:50.213Z,98676.60
2019-04-11T00:38:19.731Z,98687.16
2019-04-11T00:40:51.161Z,98687.16
2019-04-11T00:43:30.638Z,98688.43
2019-04-11T00:45:51.877Z,98691.38
2019-04-11T00:48:21.786Z,98691.38
2019-04-11T00:50:50.000Z,98687.95
2019-04-11T00:53:20.452Z,98694.15
2019-04-11T00:55:49.751Z,98693.78
2019-04-11T00:58:17.859Z,98693.78
2019-04-11T01:00:47.301Z,98697.81
2019-04-11T01:03:16.583Z,98697.83
2019-04-11T01:05:45.816Z,98697.89
2019-04-11T01:08:15.694Z,98697.89
2019-04-11T01:10:45.696Z,98690.86
2019-04-11T01:13:15.677Z,98692.05
2019-04-11T01:15:52.446Z,98692.33
2019-04-11T01:18:22.231Z,98700.65
2019-04-11T01:20:51.751Z,98699.36
2019-04-11T01:23:20.693Z,98704.02
2019-04-11T01:25:50.045Z,98701.77
2019-04-11T01:28:18.948Z,98707.40
2019-04-11T01:31:00.980Z,98710.66
2019-04-11T01:33:31.677Z,98712.04
2019-04-11T01:36:00.014Z,98711.57
2019-04-11T01:38:30.476Z,98713.52
2019-04-11T01:40:58.902Z,98716.80
2019-04-11T01:43:30.461Z,98716.80
2019-04-11T01:46:00.067Z,98717.88
2019-04-11T01:48:52.116Z,98715.06
2019-04-11T01:51:21.256Z,98720.44
2019-04-11T01:53:51.068Z,98711.44
2019-04-11T01:56:21.054Z,98719.34
2019-04-11T01:58:50.952Z,98716.72
2019-04-11T02:01:26.688Z,98720.47
2019-04-11T02:04:05.861Z,98723.50
2019-04-11T02:06:36.214Z,98723.50
2019-04-11T02:09:13.772Z,98715.98
2019-04-11T02:11:43.632Z,98715.84
2019-04-11T02:14:16.480Z,98713.14
2019-04-11T02:16:47.425Z,98713.14
2019-04-11T02:19:16.258Z,98717.91
2019-04-11T02:21:46.261Z,98717.91
2019-04-11T02:24:23.728Z,98725.55
2019-04-11T02:27:14.809Z,98733.09
2019-04-11T02:29:44.778Z,98728.56
2019-04-11T02:32:15.731Z,98735.31
2019-04-11T02:34:46.074Z,98731.00
2019-04-11T02:37:17.375Z,98740.81
2019-04-11T02:39:49.461Z,98735.48
2019-04-11T02:42:21.253Z,98735.48
2019-04-11T02:45:06.408Z,98749.47
2019-04-11T02:47:25.314Z,98750.47
2019-04-11T02:49:52.392Z,98747.72
2019-04-11T02:52:22.951Z,98757.78
2019-04-11T02:54:52.787Z,98757.12
2019-04-11T02:57:23.838Z,98754.70
2019-04-11T02:59:53.884Z,98760.52
2019-04-11T03:02:26.632Z,98762.42
2019-04-11T03:04:56.723Z,98760.62
2019-04-11T03:07:26.430Z,98758.37
2019-04-11T03:09:56.588Z,98758.37
2019-04-11T03:12:27.583Z,98757.75
2019-04-11T03:15:16.424Z,98763.42
2019-04-11T03:17:35.931Z,98762.82
2019-04-11T03:20:13.227Z,98769.38
2019-04-11T03:22:34.365Z,98767.28
2019-04-11T03:25:07.487Z,98765.39
2019-04-11T03:27:37.681Z,98771.08
2019-04-11T03:30:12.122Z,98770.08
2019-04-11T03:36:07.927Z,98778.52
2019-04-11T03:38:12.543Z,98778.52
2019-04-11T03:40:37.836Z,98776.50
2019-04-11T03:43:06.132Z,98778.00
2019-04-11T03:45:43.853Z,98784.17
2019-04-11T03:48:10.886Z,98782.53
2019-04-11T03:50:29.874Z,98785.72
2019-04-11T03:52:59.458Z,98774.41
2019-04-11T03:55:30.701Z,98774.41
2019-04-11T03:58:01.202Z,98795.73
2019-04-11T04:00:35.939Z,98804.70
2019-04-11T04:03:03.745Z,98806.00
2019-04-11T04:05:36.306Z,98810.05
2019-04-11T04:08:06.143Z,98810.05
2019-04-11T04:10:36.821Z,98807.75
2019-04-11T04:13:14.268Z,98815.84
2019-04-11T04:15:59.964Z,98817.90
2019-04-11T04:18:40.190Z,98816.25
2019-04-11T04:21:31.183Z,98821.34
2019-04-11T04:24:03.615Z,98823.41
2019-04-11T04:26:33.679Z,98816.58
2019-04-11T04:29:04.435Z,98821.59
2019-04-11T04:31:34.876Z,98824.33
2019-04-11T04:34:05.322Z,98822.66
2019-04-11T04:36:34.806Z,98821.01
2019-04-11T04:39:05.998Z,98822.20
2019-04-11T04:41:51.847Z,98823.94
2019-04-11T04:44:17.071Z,98823.16
2019-04-11T04:47:00.162Z,98819.59
2019-04-11T04:49:21.233Z,98829.77
2019-04-11T04:51:53.150Z,98831.52
2019-04-11T04:54:24.065Z,98831.52
2019-04-11T04:56:54.650Z,98832.06
2019-04-11T04:59:25.245Z,98829.59
2019-04-11T05:01:55.432Z,98834.80
2019-04-11T05:04:25.625Z,98840.85
2019-04-11T05:06:55.175Z,98844.16
2019-04-11T05:09:25.674Z,98841.56
2019-04-11T05:11:56.150Z,98842.20
2019-04-11T05:14:27.479Z,98843.89
2019-04-11T05:16:58.185Z,98850.65
2019-04-11T05:19:28.567Z,98847.98
2019-04-11T05:21:59.783Z,98841.98
2019-04-11T05:24:30.476Z,98846.81
2019-04-11T05:27:00.578Z,98847.17
2019-04-11T05:29:30.237Z,98847.17
2019-04-11T05:32:00.431Z,98856.42
2019-04-11T05:34:30.498Z,98857.74
2019-04-11T05:37:01.913Z,98859.91
2019-04-11T05:39:35.679Z,98856.83
2019-04-11T05:42:07.128Z,98845.02
2019-04-11T05:44:39.233Z,98858.37
2019-04-11T05:47:14.559Z,98855.13
2019-04-11T05:50:13.795Z,98862.05
2019-04-11T05:52:47.011Z,98862.05
2019-04-11T05:55:17.720Z,98870.17
2019-04-11T05:57:54.815Z,98860.08
2019-04-11T06:00:53.315Z,98863.42
2019-04-11T06:03:28.175Z,98855.00
2019-04-11T06:06:21.927Z,98855.00
2019-04-11T06:09:02.148Z,98874.23
2019-04-11T06:11:52.180Z,98874.47
2019-04-11T06:14:35.734Z,98873.13
2019-04-11T06:17:09.183Z,98884.02
2019-04-11T06:19:57.626Z,98882.66
2019-04-11T06:22:27.708Z,98884.31
2019-04-11T06:25:19.242Z,98892.95
2019-04-11T06:27:51.596Z,98884.88
2019-04-11T06:30:40.487Z,98888.99
2019-04-11T06:33:38.574Z,98887.70
2019-04-11T06:36:33.964Z,98887.70
2019-04-11T06:39:15.806Z,98892.03
2019-04-11T06:42:04.133Z,98900.80
2019-04-11T06:44:46.020Z,98895.44
2019-04-11T06:47:34.678Z,98905.90
2019-04-11T06:50:15.956Z,98909.31
2019-04-11T06:52:45.604Z,98913.73
2019-04-11T06:55:22.446Z,98911.49
2019-04-11T06:57:52.808Z,98911.49
2019-04-11T07:00:23.151Z,98915.92
2019-04-11T07:02:59.287Z,98920.25
2019-04-11T07:08:16.552Z,98919.55
2019-04-11T07:10:55.163Z,98920.81
2019-04-11T07:13:43.372Z,98916.88
2019-04-11T07:16:13.625Z,98922.18
2019-04-11T07:19:02.847Z,98930.66
2019-04-11T07:21:35.523Z,98930.66
2019-04-11T07:24:36.803Z,98929.19
2019-04-11T07:27:12.047Z,98923.39
2019-04-11T07:30:07.310Z,98931.21
2019-04-11T07:32:38.707Z,98927.27
2019-04-11T07:35:40.103Z,98935.39
2019-04-11T07:38:11.844Z,98930.50
2019-04-11T07:42:09.289Z,98932.45
2019-04-11T07:44:39.434Z,98935.14
2019-04-11T07:47:35.089Z,98934.22
2019-04-11T07:50:05.906Z,98931.23
2019-04-11T07:52:45.131Z,98944.00
2019-04-11T07:55:18.966Z,98928.06
2019-04-11T07:57:52.497Z,98931.19
2019-04-11T08:00:53.351Z,98930.05
2019-04-11T08:03:42.452Z,98930.05
2019-04-11T08:06:39.823Z,98918.19
2019-04-11T08:09:28.898Z,98918.19
2019-04-11T08:12:21.335Z,98928.56
2019-04-11T08:15:09.465Z,98931.62
2019-04-11T08:17:42.919Z,98926.66
2019-04-11T08:20:31.190Z,98938.84
2019-04-11T08:23:03.617Z,98927.91
2019-04-11T08:25:57.936Z,98934.02
2019-04-11T08:28:27.503Z,98937.41
2019-04-11T08:31:19.391Z,98941.37
2019-04-11T08:33:50.958Z,98936.52
2019-04-11T08:36:40.089Z,98946.92
2019-04-11T08:39:17.938Z,98943.73
2019-04-11T08:42:12.841Z,98940.48
2019-04-11T08:44:44.796Z,98944.14
2019-04-11T08:47:16.329Z,98940.39
2019-04-11T08:49:50.074Z,98942.59
2019-04-11T08:52:38.241Z,98944.66
2019-04-11T08:55:12.391Z,98937.00
2019-04-11T08:57:44.644Z,98942.52
2019-04-11T09:00:34.703Z,98940.28
2019-04-11T09:03:41.999Z,98940.28
2019-04-11T09:06:20.817Z,98944.01
2019-04-11T09:09:17.312Z,98943.94
2019-04-11T09:11:49.204Z,98939.79
2019-04-11T09:14:38.064Z,98940.89
2019-04-11T09:17:10.588Z,98949.67
2019-04-11T09:19:55.478Z,98943.71
2019-04-11T09:22:31.158Z,98943.71
2019-04-11T09:25:19.360Z,98950.50
2019-04-11T09:28:04.961Z,98955.31
2019-04-11T09:30:54.872Z,98954.13
2019-04-11T09:33:44.905Z,98951.40
2019-04-11T09:36:41.498Z,98941.39
2019-04-11T09:39:33.746Z,98938.97
2019-04-11T09:42:28.391Z,98942.38
2019-04-11T09:45:23.485Z,98944.00
2019-04-11T09:48:14.952Z,98944.00
2019-04-11T09:51:03.017Z,98952.11
2019-04-11T09:53:34.482Z,98958.34
2019-04-11T09:56:20.798Z,98952.17
2019-04-11T09:58:51.886Z,98952.17
2019-04-11T10:01:47.062Z,98948.22
2019-04-11T10:06:07.154Z,98939.91
2019-04-11T10:08:39.575Z,98941.50
2019-04-11T10:11:28.243Z,98938.99
2019-04-11T10:14:05.188Z,98946.53
2019-04-11T10:17:04.538Z,98947.48
2019-04-11T10:19:38.577Z,98946.88
2019-04-11T10:22:27.061Z,98939.91
2019-04-11T10:25:07.612Z,98939.91
2019-04-11T10:28:02.826Z,98943.28
2019-04-11T10:30:50.830Z,98945.84
2019-04-11T10:33:33.019Z,98947.94
2019-04-11T10:36:23.138Z,98943.77
2019-04-11T10:39:15.869Z,98940.44
2019-04-11T10:41:50.587Z,98944.50
2019-04-11T10:44:33.918Z,98948.09
2019-04-11T10:47:12.341Z,98950.84
2019-04-11T10:50:19.889Z,98943.14
2019-04-11T10:52:52.969Z,98943.14
2019-04-11T10:55:39.867Z,98943.68
2019-04-11T10:58:21.642Z,98951.28
2019-04-11T11:01:09.452Z,98955.15
2019-04-11T11:04:07.393Z,98959.19
2019-04-11T11:06:37.926Z,98945.12
2019-04-11T11:09:23.470Z,98943.41
2019-04-11T11:12:01.534Z,98946.44
2019-04-11T11:14:51.948Z,98952.35
2019-04-11T11:18:28.114Z,98952.35
2019-04-11T11:20:39.933Z,98943.59
2019-04-11T11:23:25.377Z,98946.14
2019-04-11T11:26:12.617Z,98956.27
2019-04-11T11:29:08.247Z,98945.32
2019-04-11T11:31:56.566Z,98948.34
2019-04-11T11:35:01.058Z,98947.91
2019-04-11T11:37:49.454Z,98947.91
2019-04-11T11:40:44.332Z,98958.01
2019-04-11T11:43:19.100Z,98956.19
2019-04-11T11:45:56.699Z,98950.34
2019-04-11T11:48:35.649Z,98953.16
2019-04-11T11:51:33.378Z,98943.72
2019-04-11T11:54:29.295Z,98948.77
2019-04-11T11:57:02.897Z,98939.66
2019-04-11T11:59:44.906Z,98939.66
2019-04-11T12:02:28.643Z,98944.53
2019-04-11T12:05:16.795Z,98940.30
2019-04-11T12:07:54.544Z,98940.30
2019-04-11T12:10:41.654Z,98950.34
2019-04-11T12:14:00.061Z,98952.58
2019-04-11T12:17:00.341Z,98942.09
2019-04-11T12:19:41.246Z,98935.98
2019-04-11T12:22:02.259Z,98945.35
2019-04-11T12:24:36.483Z,98934.84
2019-04-11T12:27:35.111Z,98935.61
2019-04-11T12:30:27.937Z,98938.99
2019-04-11T12:33:03.364Z,98930.19
2019-04-11T12:35:59.092Z,98935.28
2019-04-11T12:38:47.575Z,98930.46
2019-04-11T12:41:42.764Z,98921.24
2019-04-11T12:44:50.502Z,98921.24
2019-04-11T12:47:24.588Z,98930.61
2019-04-11T12:50:13.350Z,98934.00
2019-04-11T12:52:55.420Z,98934.00
2019-04-11T12:55:32.932Z,98931.30
2019-04-11T12:58:16.659Z,98931.82
2019-04-11T13:01:06.292Z,98930.19
2019-04-11T13:03:54.496Z,98933.27
2019-04-11T13:06:39.304Z,98927.03
2019-04-11T13:09:31.284Z,98927.03
2019-04-11T13:12:01.304Z,98925.14
2019-04-11T13:14:37.871Z,98922.10
2019-04-11T13:17:11.024Z,98916.78
2019-04-11T13:20:04.710Z,98912.33
2019-04-11T13:22:29.669Z,98926.84
2019-04-11T13:25:12.861Z,98926.84
2019-04-11T13:27:46.293Z,98912.52
2019-04-11T13:30:34.724Z,98916.24
2019-04-11T13:33:15.539Z,98916.27
2019-04-11T13:36:05.504Z,98908.46
2019-04-11T13:38:42.745Z,98909.49
2019-04-11T13:41:30.302Z,98909.14
2019-04-11T13:44:09.664Z,98910.77
2019-04-11T13:46:57.549Z,98908.77
2019-04-11T13:49:45.455Z,98920.17
2019-04-11T13:52:36.023Z,98924.53
2019-04-11T13:55:32.304Z,98924.53
2019-04-11T13:58:19.911Z,98927.03
2019-04-11T14:00:50.380Z,98922.12
2019-04-11T14:03:47.135Z,98921.91
2019-04-11T14:06:38.463Z,98905.14
2019-04-11T14:09:39.793Z,98906.11
2019-04-11T14:12:14.751Z,98906.96
2019-04-11T14:14:52.091Z,98906.98
2019-04-11T14:17:41.594Z,98909.95
2019-04-11T14:20:29.289Z,98912.41
2019-04-11T14:23:14.674Z,98908.37
2019-04-11T14:26:04.290Z,98906.44
2019-04-11T14:28:55.040Z,98914.06
2019-04-11T14:31:43.132Z,98905.16
2019-04-11T14:34:23.902Z,98906.63
2019-04-11T14:37:05.494Z,98907.56
2019-04-11T14:39:37.225Z,98887.89
2019-04-11T14:42:25.522Z,98887.89
2019-04-11T14:44:54.935Z,98901.09
2019-04-11T14:47:41.893Z,98901.09
2019-04-11T14:50:11.853Z,98905.88
2019-04-11T14:52:59.466Z,98916.80
2019-04-11T14:55:28.641Z,98917.00
2019-04-11T14:58:29.621Z,98909.73
2019-04-11T15:00:58.260Z,98914.69
2019-04-11T15:03:50.923Z,98910.67
2019-04-11T15:06:27.986Z,98907.67
2019-04-11T15:09:29.302Z,98912.13
2019-04-11T15:12:11.078Z,98915.05
2019-04-11T15:14:59.142Z,98922.81
2019-04-11T15:17:43.108Z,98916.28
2019-04-11T15:20:54.835Z,98922.59
2019-04-11T15:23:24.109Z,98921.24
2019-04-11T15:26:13.514Z,98927.95
2019-04-11T15:29:13.834Z,98910.28
2019-04-11T15:32:20.641Z,98910.28
2019-04-11T15:34:55.740Z,98926.78
2019-04-11T15:37:48.780Z,98926.78
2019-04-11T15:40:37.686Z,98925.84
2019-04-11T15:43:42.019Z,98917.46
2019-04-11T15:46:23.936Z,98918.16
2019-04-11T15:49:20.892Z,98928.34
2019-04-11T15:51:53.041Z,98923.92
2019-04-11T15:54:42.024Z,98924.63
2019-04-11T15:57:29.748Z,98927.48
2019-04-11T16:00:26.576Z,98919.80
2019-04-11T16:03:05.626Z,98928.05
2019-04-11T16:05:54.321Z,98928.05
2019-04-11T16:08:52.458Z,98918.67
2019-04-11T16:11:41.570Z,98922.80
2019-04-11T16:14:17.454Z,98918.36
2019-04-11T16:17:13.754Z,98918.36
2019-04-11T16:19:51.041Z,98904.50
2019-04-11T16:22:41.798Z,98904.50
2019-04-11T16:25:14.048Z,98918.09
2019-04-11T16:28:07.227Z,98922.39
2019-04-11T16:30:40.394Z,98921.33
2019-04-11T16:33:38.050Z,98927.70
2019-04-11T16:36:11.594Z,98927.70
2019-04-11T16:39:02.487Z,98927.95
2019-04-11T16:41:53.903Z,98927.95
2019-04-11T16:44:46.203Z,98926.69
2019-04-11T16:47:38.940Z,98926.50
2019-04-11T16:50:09.604Z,98924.07
2019-04-11T16:52:39.178Z,98934.73
2019-04-11T16:55:10.697Z,98924.21
2019-04-11T16:57:43.847Z,98932.41
2019-04-11T17:00:14.697Z,98931.78
2019-04-11T17:02:43.069Z,98931.78
2019-04-11T17:05:12.089Z,98936.13
2019-04-11T17:07:57.670Z,98924.72
2019-04-11T17:10:45.493Z,98929.52
2019-04-11T17:13:15.512Z,98938.08
2019-04-11T17:15:45.253Z,98938.08
2019-04-11T17:18:15.297Z,98936.22
2019-04-11T17:20:45.104Z,98938.46
2019-04-11T17:23:17.190Z,98940.19
2019-04-11T17:25:53.005Z,98945.42
2019-04-11T17:28:23.779Z,98951.08
2019-04-11T17:30:55.721Z,98951.08
2019-04-11T17:33:28.630Z,98952.42
2019-04-11T17:36:02.108Z,98956.36
2019-04-11T17:38:30.788Z,98953.17
2019-04-11T17:42:13.974Z,98957.09
2019-04-11T17:44:44.027Z,98960.42
2019-04-11T17:47:18.149Z,98958.22
2019-04-11T17:49:47.841Z,98969.53
2019-04-11T17:52:17.312Z,98969.24
2019-04-11T17:54:48.672Z,98968.83
2019-04-11T17:57:22.569Z,98968.84
2019-04-11T19:34:08.804Z,99064.08
2019-04-11T19:36:39.830Z,99067.53
2019-04-11T19:39:13.492Z,99059.82
2019-04-11T19:41:41.781Z,99059.82
2019-04-11T19:44:11.159Z,99069.97
2019-04-11T19:46:41.087Z,99058.91
2019-04-11T19:49:10.833Z,99061.07
2019-04-11T19:51:40.035Z,99058.63
2019-04-11T19:54:09.180Z,99059.25
2019-04-11T19:56:42.810Z,99059.17
2019-04-11T19:59:12.069Z,99066.70
2019-04-11T20:01:41.301Z,99054.84
2019-04-11T20:04:10.549Z,99063.68
2019-04-11T20:06:40.102Z,99057.74
2019-04-11T20:09:30.627Z,99052.08
2019-04-11T20:12:00.873Z,99054.20
2019-04-11T20:14:34.142Z,99053.09
2019-04-11T20:17:01.635Z,99049.70
2019-04-11T20:20:01.198Z,99058.98
2019-04-11T20:22:24.943Z,99063.81
2019-04-11T20:24:54.046Z,99061.45
2019-04-11T20:27:23.423Z,99065.53
2019-04-11T20:30:00.081Z,99070.44
2019-04-11T20:32:33.058Z,99071.34
2019-04-11T20:35:02.726Z,99072.36
2019-04-11T20:37:39.059Z,99075.45
2019-04-11T20:40:12.323Z,99084.22
2019-04-11T20:42:42.026Z,99083.65
2019-04-11T20:45:11.586Z,99094.37
2019-04-11T20:47:40.810Z,99089.30
2019-04-11T20:50:11.513Z,99089.30
2019-04-11T20:52:40.744Z,99092.55
2019-04-11T20:55:11.067Z,99092.55
2019-04-11T20:57:41.020Z,99097.84
2019-04-11T21:00:13.041Z,99098.48
2019-04-11T21:02:44.346Z,99102.44
2019-04-11T21:05:15.612Z,99098.57
2019-04-11T21:07:44.932Z,99097.92
2019-04-11T21:10:14.140Z,99097.92
2019-04-11T21:12:43.455Z,99099.19
2019-04-11T21:15:15.733Z,99105.84
2019-04-11T21:17:45.338Z,99106.24
2019-04-11T21:20:15.424Z,99101.98
2019-04-11T21:22:45.598Z,99110.27
2019-04-11T21:25:16.088Z,99109.94
2019-04-11T21:27:49.165Z,99113.75
2019-04-11T21:30:20.520Z,99111.85
2019-04-11T21:32:51.038Z,99121.62
2019-04-11T21:35:21.328Z,99121.62
2019-04-11T21:37:51.605Z,99120.55
2019-04-11T21:40:21.664Z,99124.87
2019-04-11T21:42:50.880Z,99128.72
2019-04-11T21:45:21.004Z,99132.94
2019-04-11T21:47:51.166Z,99134.42
2019-04-11T21:50:21.416Z,99140.45
2019-04-11T21:52:53.319Z,99137.10
2019-04-11T21:55:22.513Z,99138.59
2019-04-11T21:57:52.005Z,99135.83
2019-04-11T22:00:38.326Z,99142.13
2019-04-11T22:03:10.374Z,99142.23
2019-04-11T22:05:40.501Z,99144.53
2019-04-11T22:08:09.992Z,99143.09
2019-04-11T22:10:40.471Z,99143.09
2019-04-11T22:13:10.692Z,99146.25
2019-04-11T22:15:42.416Z,99141.94
2019-04-11T22:18:15.797Z,99140.77
2019-04-11T22:20:45.303Z,99140.64
2019-04-11T22:23:12.991Z,99141.08
2019-04-11T22:25:42.306Z,99143.86
2019-04-11T22:28:12.984Z,99137.34
2019-04-11T22:30:42.772Z,99147.87
2019-04-11T22:33:19.972Z,99141.03
2019-04-11T22:35:50.012Z,99151.26
2019-04-11T22:38:20.162Z,99147.39
2019-04-11T22:40:50.335Z,99148.08
2019-04-11T22:43:24.431Z,99149.80
2019-04-11T22:45:52.737Z,99145.77
2019-04-11T22:48:22.010Z,99147.27
2019-04-11T22:50:52.579Z,99150.19
2019-04-11T22:53:22.443Z,99155.36
2019-04-11T22:55:52.470Z,99155.36
2019-04-11T22:58:22.442Z,99152.66
2019-04-11T23:00:52.142Z,99147.63
2019-04-11T23:03:36.687Z,99151.19
2019-04-11T23:06:06.061Z,99149.85
2019-04-11T23:08:34.950Z,99150.22
2019-04-11T23:11:07.480Z,99149.11
2019-04-11T23:13:36.632Z,99147.64
2019-04-11T23:16:05.479Z,99143.47
2019-04-11T23:18:34.741Z,99142.69
2019-04-11T23:21:03.017Z,99142.69
2019-04-11T23:23:32.592Z,99161.01
2019-04-11T23:26:01.775Z,99149.48
2019-04-11T23:28:30.956Z,99149.48
2019-04-11T23:31:00.525Z,99160.28
2019-04-11T23:33:29.724Z,99164.46
2019-04-11T23:35:58.769Z,99162.23
2019-04-11T23:38:27.357Z,99160.54
2019-04-11T23:40:56.763Z,99158.51
2019-04-11T23:43:25.996Z,99160.91
2019-04-11T23:45:55.513Z,99162.36
2019-04-11T23:48:24.711Z,99158.73
2019-04-11T23:50:55.770Z,99162.19
2019-04-11T23:53:28.193Z,99159.08
2019-04-11T23:55:59.792Z,99161.82
2019-04-11T23:58:27.389Z,99159.75
